createdAt,value
2017-06-01T00:01:54.447Z,16.30
2017-06-01T00:04:23.283Z,16.20
2017-06-01T00:06:52.133Z,16.10
2017-06-01T00:09:20.967Z,15.60
2017-06-01T00:11:49.808Z,15.60
2017-06-01T00:14:17.872Z,15.60
2017-06-01T00:16:46.720Z,15.70
2017-06-01T00:19:15.555Z,15.50
2017-06-01T00:21:44.395Z,15.70
2017-06-01T00:24:13.243Z,15.20
2017-06-01T00:26:42.097Z,15.50
2017-06-01T00:29:10.933Z,15.70
2017-06-01T00:31:39.756Z,15.80
2017-06-01T00:34:08.591Z,15.70
2017-06-01T00:36:37.430Z,15.60
2017-06-01T00:39:06.260Z,15.50
2017-06-01T00:41:35.089Z,15.40
2017-06-01T00:44:03.923Z,15.60
2017-06-01T00:46:32.747Z,15.50
2017-06-01T00:49:01.617Z,15.30
2017-06-01T00:51:30.448Z,15.40
2017-06-01T00:53:59.284Z,15.50
2017-06-01T00:56:28.120Z,15.60
2017-06-01T00:58:56.960Z,15.60
2017-06-01T01:01:25.031Z,15.60
2017-06-01T01:03:53.867Z,15.50
2017-06-01T01:06:22.708Z,15.30
2017-06-01T01:08:51.532Z,14.90
2017-06-01T01:11:20.374Z,14.90
2017-06-01T01:13:49.204Z,14.40
2017-06-01T01:16:17.288Z,14.40
2017-06-01T01:18:46.116Z,14.50
2017-06-01T01:21:14.966Z,14.50
2017-06-01T01:23:43.811Z,14.50
2017-06-01T01:26:12.659Z,14.60
2017-06-01T01:28:41.527Z,14.60
2017-06-01T01:31:10.377Z,14.80
2017-06-01T01:33:38.443Z,14.80
2017-06-01T01:36:07.355Z,14.90
2017-06-01T01:38:36.129Z,15.00
2017-06-01T01:41:04.980Z,15.00
2017-06-01T01:43:33.822Z,15.10
2017-06-01T01:46:02.874Z,15.20
2017-06-01T01:48:31.712Z,15.00
2017-06-01T01:51:00.576Z,15.00
2017-06-01T01:53:29.395Z,15.10
2017-06-01T01:55:58.240Z,14.90
2017-06-01T01:58:27.072Z,14.00
2017-06-01T02:00:55.904Z,13.80
2017-06-01T02:03:24.743Z,13.90
2017-06-01T02:05:52.808Z,13.90
2017-06-01T02:08:21.657Z,14.30
2017-06-01T02:10:50.497Z,14.60
2017-06-01T02:13:19.355Z,14.70
2017-06-01T02:15:48.209Z,14.70
2017-06-01T02:18:17.065Z,14.60
2017-06-01T02:20:45.911Z,14.80
2017-06-01T02:23:14.741Z,14.80
2017-06-01T02:25:42.808Z,14.80
2017-06-01T02:28:11.642Z,14.80
2017-06-01T02:30:40.488Z,14.80
2017-06-01T02:33:09.348Z,14.40
2017-06-01T02:35:38.184Z,13.70
2017-06-01T02:38:07.036Z,13.30
2017-06-01T02:40:35.889Z,13.20
2017-06-01T02:43:04.736Z,13.00
2017-06-01T02:45:33.563Z,13.20
2017-06-01T02:48:02.398Z,13.50
2017-06-01T02:50:31.233Z,13.20
2017-06-01T02:53:00.093Z,13.20
2017-06-01T02:55:28.920Z,13.40
2017-06-01T02:57:57.779Z,13.10
2017-06-01T03:00:26.612Z,12.80
2017-06-01T03:02:54.714Z,12.80
2017-06-01T03:05:23.513Z,13.30
2017-06-01T03:07:51.607Z,13.30
2017-06-01T03:10:20.448Z,13.40
2017-06-01T03:12:49.308Z,13.70
2017-06-01T03:15:18.193Z,13.60
2017-06-01T03:17:47.032Z,13.00
2017-06-01T03:20:15.920Z,12.50
2017-06-01T03:22:44.761Z,12.60
2017-06-01T03:25:13.595Z,13.00
2017-06-01T03:27:42.435Z,13.00
2017-06-01T03:30:11.263Z,13.30
2017-06-01T03:32:40.108Z,13.40
2017-06-01T03:35:08.957Z,13.20
2017-06-01T03:37:37.804Z,13.20
2017-06-01T03:40:06.643Z,13.00
2017-06-01T03:42:35.496Z,13.30
2017-06-01T03:45:04.335Z,13.60
2017-06-01T03:47:33.164Z,13.90
2017-06-01T03:50:02.008Z,14.00
2017-06-01T03:52:30.852Z,14.00
2017-06-01T03:54:59.693Z,13.90
2017-06-01T04:00:01.956Z,13.80
2017-06-01T04:02:29.898Z,13.80
2017-06-01T04:04:58.841Z,13.50
2017-06-01T04:07:27.684Z,13.40
2017-06-01T04:09:56.511Z,13.60
2017-06-01T04:12:25.347Z,13.50
2017-06-01T04:14:54.184Z,13.70
2017-06-01T04:17:23.052Z,14.20
2017-06-01T04:19:51.893Z,14.30
2017-06-01T04:22:20.715Z,14.30
2017-06-01T04:24:49.568Z,14.50
2017-06-01T04:27:18.429Z,14.90
2017-06-01T04:29:47.307Z,15.10
2017-06-01T04:32:16.201Z,15.00
2017-06-01T04:34:45.045Z,14.90
2017-06-01T04:37:13.872Z,15.00
2017-06-01T04:39:42.728Z,15.20
2017-06-01T04:42:10.799Z,15.20
2017-06-01T04:44:38.873Z,15.40
2017-06-01T04:47:07.700Z,15.40
2017-06-01T04:49:36.531Z,15.30
2017-06-01T04:52:05.375Z,15.40
2017-06-01T04:54:34.205Z,15.70
2017-06-01T04:57:03.036Z,16.20
2017-06-01T04:59:31.883Z,16.60
2017-06-01T05:02:00.715Z,16.40
2017-06-01T05:04:29.548Z,16.60
2017-06-01T05:06:58.389Z,16.30
2017-06-01T05:09:27.245Z,16.40
2017-06-01T05:11:55.306Z,16.40
2017-06-01T05:14:24.140Z,16.40
2017-06-01T05:16:52.991Z,16.10
2017-06-01T05:19:21.832Z,16.50
2017-06-01T05:21:50.678Z,17.20
2017-06-01T05:24:18.780Z,17.20
2017-06-01T05:26:47.618Z,17.80
2017-06-01T05:29:16.439Z,17.80
2017-06-01T05:31:45.005Z,17.70
2017-06-01T05:34:13.931Z,18.60
2017-06-01T05:36:42.952Z,19.00
2017-06-01T05:39:11.826Z,19.30
2017-06-01T05:41:39.940Z,19.30
2017-06-01T05:44:08.812Z,19.60
2017-06-01T05:46:37.667Z,19.20
2017-06-01T05:49:06.507Z,19.50
2017-06-01T05:51:35.331Z,19.70
2017-06-01T05:54:04.185Z,19.80
2017-06-01T05:56:32.242Z,19.80
2017-06-01T05:59:01.096Z,20.30
2017-06-01T06:01:29.931Z,20.20
2017-06-01T06:03:58.003Z,20.10
2017-06-01T06:06:26.865Z,20.50
2017-06-01T06:08:55.715Z,20.60
2017-06-01T06:11:24.570Z,20.40
2017-06-01T06:13:53.399Z,20.50
2017-06-01T06:16:22.245Z,20.70
2017-06-01T06:18:51.085Z,21.00
2017-06-01T06:21:19.927Z,21.10
2017-06-01T06:23:48.762Z,20.60
2017-06-01T06:26:17.598Z,19.30
2017-06-01T06:28:46.435Z,20.30
2017-06-01T06:31:15.284Z,21.00
2017-06-01T06:33:44.119Z,21.40
2017-06-01T06:36:12.950Z,21.60
2017-06-01T06:38:41.796Z,21.80
2017-06-01T06:41:10.621Z,22.00
2017-06-01T06:43:39.451Z,21.50
2017-06-01T06:46:08.285Z,22.10
2017-06-01T06:48:37.119Z,22.20
2017-06-01T06:51:05.944Z,22.40
2017-06-01T06:53:34.795Z,22.40
2017-06-01T06:56:02.869Z,22.40
2017-06-01T06:58:31.695Z,22.80
2017-06-01T07:01:00.531Z,22.70
2017-06-01T07:03:29.364Z,22.40
2017-06-01T07:05:58.207Z,22.40
2017-06-01T07:08:27.037Z,22.70
2017-06-01T07:10:55.871Z,23.10
2017-06-01T07:13:24.704Z,23.30
2017-06-01T07:15:53.549Z,23.50
2017-06-01T07:18:22.369Z,23.80
2017-06-01T07:20:51.224Z,24.00
2017-06-01T07:23:20.051Z,24.20
2017-06-01T07:25:48.116Z,24.20
2017-06-01T07:28:16.963Z,24.70
2017-06-01T07:30:45.030Z,24.60
2017-06-01T07:33:13.859Z,24.60
2017-06-01T07:35:42.684Z,24.90
2017-06-01T07:38:11.514Z,25.00
2017-06-01T07:40:40.341Z,24.70
2017-06-01T07:43:08.423Z,24.70
2017-06-01T07:45:37.258Z,24.50
2017-06-01T07:48:06.079Z,23.70
2017-06-01T07:50:34.919Z,23.70
2017-06-01T07:53:03.758Z,24.20
2017-06-01T07:55:32.586Z,24.80
2017-06-01T07:58:01.414Z,25.20
2017-06-01T08:00:30.250Z,25.20
2017-06-01T08:02:59.080Z,24.90
2017-06-01T08:05:27.942Z,24.00
2017-06-01T08:07:56.763Z,24.60
2017-06-01T08:10:25.594Z,25.40
2017-06-01T08:12:54.428Z,26.00
2017-06-01T08:15:23.260Z,26.20
2017-06-01T08:17:52.097Z,26.20
2017-06-01T08:20:20.159Z,26.20
2017-06-01T08:22:48.990Z,25.70
2017-06-01T08:25:17.821Z,26.20
2017-06-01T08:27:46.659Z,26.10
2017-06-01T08:30:15.487Z,26.70
2017-06-01T08:32:44.327Z,27.00
2017-06-01T08:35:13.151Z,27.00
2017-06-01T08:37:41.992Z,27.30
2017-06-01T08:40:10.896Z,27.50
2017-06-01T08:42:39.731Z,27.70
2017-06-01T08:45:08.582Z,27.40
2017-06-01T08:47:37.411Z,27.30
2017-06-01T08:50:06.263Z,27.80
2017-06-01T08:52:35.110Z,28.20
2017-06-01T08:55:03.150Z,28.10
2017-06-01T08:57:31.991Z,27.20
2017-06-01T09:00:00.827Z,28.00
2017-06-01T09:02:29.656Z,28.30
2017-06-01T09:04:58.507Z,27.40
2017-06-01T09:07:27.344Z,26.90
2017-06-01T09:09:56.169Z,27.70
2017-06-01T09:12:25.016Z,28.00
2017-06-01T09:14:53.840Z,28.40
2017-06-01T09:17:22.689Z,29.10
2017-06-01T09:19:51.519Z,30.10
2017-06-01T09:22:20.340Z,29.90
2017-06-01T09:24:49.175Z,29.10
2017-06-01T09:27:18.011Z,28.50
2017-06-01T09:29:46.874Z,27.60
2017-06-01T09:32:15.695Z,27.10
2017-06-01T09:34:44.515Z,26.60
2017-06-01T09:37:13.354Z,26.20
2017-06-01T09:39:42.188Z,26.10
2017-06-01T09:42:11.008Z,25.80
2017-06-01T09:44:39.840Z,25.70
2017-06-01T09:47:08.686Z,25.90
2017-06-01T09:49:37.507Z,26.60
2017-06-01T09:52:06.390Z,27.60
2017-06-01T09:54:35.211Z,28.80
2017-06-01T09:57:04.043Z,29.50
2017-06-01T09:59:32.880Z,29.80
2017-06-01T10:02:01.712Z,30.20
2017-06-01T10:04:30.561Z,30.60
2017-06-01T10:06:59.395Z,29.20
2017-06-01T10:09:28.228Z,29.40
2017-06-01T10:11:57.074Z,29.30
2017-06-01T10:14:25.909Z,30.00
2017-06-01T10:16:54.735Z,30.60
2017-06-01T10:19:23.605Z,28.00
2017-06-01T10:21:51.676Z,28.00
2017-06-01T10:24:19.746Z,27.90
2017-06-01T10:26:48.576Z,27.20
2017-06-01T10:29:17.412Z,27.80
2017-06-01T10:31:46.248Z,27.90
2017-06-01T10:34:15.360Z,27.70
2017-06-01T10:36:44.192Z,27.30
2017-06-01T10:39:13.030Z,26.80
2017-06-01T10:41:41.855Z,27.50
2017-06-01T10:44:10.691Z,28.60
2017-06-01T10:46:39.537Z,29.10
2017-06-01T10:49:08.367Z,28.90
2017-06-01T10:51:37.197Z,28.30
2017-06-01T10:54:06.054Z,28.50
2017-06-01T10:56:34.871Z,29.20
2017-06-01T10:59:03.710Z,29.60
2017-06-01T11:01:31.781Z,29.60
2017-06-01T11:04:00.611Z,30.40
2017-06-01T11:06:29.456Z,30.50
2017-06-01T11:08:58.299Z,30.70
2017-06-01T11:11:27.158Z,30.80
2017-06-01T11:13:55.979Z,30.60
2017-06-01T11:16:24.813Z,29.70
2017-06-01T11:18:53.647Z,30.40
2017-06-01T11:21:21.715Z,30.40
2017-06-01T11:23:50.568Z,30.80
2017-06-01T11:26:19.392Z,31.10
2017-06-01T11:28:48.238Z,30.30
2017-06-01T11:31:17.059Z,30.00
2017-06-01T11:33:45.934Z,30.30
2017-06-01T11:36:14.756Z,30.30
2017-06-01T11:38:43.600Z,30.40
2017-06-01T11:41:11.671Z,30.40
2017-06-01T11:43:40.496Z,30.80
2017-06-01T11:46:09.337Z,30.70
2017-06-01T11:48:38.155Z,30.50
2017-06-01T11:51:06.235Z,30.50
2017-06-01T11:53:34.291Z,29.80
2017-06-01T11:56:03.151Z,30.20
2017-06-01T11:58:31.983Z,30.50
2017-06-01T12:01:00.826Z,30.70
2017-06-01T12:03:29.703Z,31.30
2017-06-01T12:05:58.537Z,31.20
2017-06-01T12:08:27.367Z,30.80
2017-06-01T12:10:56.205Z,30.70
2017-06-01T12:13:25.071Z,30.70
2017-06-01T12:15:53.894Z,31.20
2017-06-01T12:18:22.745Z,31.50
2017-06-01T12:20:50.813Z,31.50
2017-06-01T12:23:19.646Z,31.70
2017-06-01T12:25:48.499Z,32.10
2017-06-01T12:28:17.335Z,32.30
2017-06-01T12:30:46.171Z,32.30
2017-06-01T12:33:14.999Z,31.90
2017-06-01T12:35:43.880Z,31.50
2017-06-01T12:38:12.701Z,31.20
2017-06-01T12:40:41.561Z,31.60
2017-06-01T12:43:10.404Z,31.40
2017-06-01T12:45:39.235Z,32.00
2017-06-01T12:48:08.093Z,32.20
2017-06-01T12:50:36.924Z,32.00
2017-06-01T12:53:05.765Z,30.00
2017-06-01T12:55:34.600Z,28.30
2017-06-01T12:58:03.441Z,30.20
2017-06-01T13:00:32.583Z,30.80
2017-06-01T13:03:01.438Z,31.20
2017-06-01T13:05:30.272Z,31.00
2017-06-01T13:07:59.133Z,31.30
2017-06-01T13:10:27.969Z,31.10
2017-06-01T13:12:56.800Z,31.30
2017-06-01T13:15:25.640Z,30.00
2017-06-01T13:17:54.474Z,29.30
2017-06-01T13:20:22.568Z,29.20
2017-06-01T13:22:51.398Z,31.00
2017-06-01T13:25:20.244Z,31.30
2017-06-01T13:27:49.089Z,31.10
2017-06-01T13:30:17.920Z,30.70
2017-06-01T13:32:46.762Z,30.20
2017-06-01T13:35:15.587Z,29.30
2017-06-01T13:37:44.427Z,28.90
2017-06-01T13:40:13.247Z,29.00
2017-06-01T13:42:42.083Z,29.30
2017-06-01T13:45:10.920Z,29.50
2017-06-01T13:47:39.776Z,29.80
2017-06-01T13:50:08.601Z,30.00
2017-06-01T13:52:37.435Z,29.70
2017-06-01T13:55:06.283Z,29.80
2017-06-01T13:57:35.120Z,29.30
2017-06-01T14:00:03.958Z,29.20
2017-06-01T14:02:32.783Z,29.00
2017-06-01T14:05:01.659Z,29.00
2017-06-01T14:07:30.527Z,29.10
2017-06-01T14:09:59.360Z,29.20
2017-06-01T14:12:28.218Z,29.20
2017-06-01T14:14:57.039Z,29.00
2017-06-01T14:17:25.872Z,29.00
2017-06-01T14:19:54.704Z,28.80
2017-06-01T14:22:23.563Z,28.60
2017-06-01T14:24:52.395Z,28.50
2017-06-01T14:27:22.146Z,28.40
2017-06-01T14:29:50.981Z,28.30
2017-06-01T14:32:19.843Z,28.30
2017-06-01T14:34:48.695Z,27.90
2017-06-01T14:37:17.536Z,27.90
2017-06-01T14:39:46.388Z,27.70
2017-06-01T14:42:15.219Z,27.40
2017-06-01T14:44:43.304Z,27.40
2017-06-01T14:47:12.275Z,27.00
2017-06-01T14:49:41.104Z,27.00
2017-06-01T14:52:09.947Z,26.90
2017-06-01T14:54:38.768Z,27.00
2017-06-01T14:57:07.633Z,26.90
2017-06-01T14:59:36.452Z,27.00
2017-06-01T15:02:05.319Z,26.70
2017-06-01T15:04:34.155Z,26.60
2017-06-01T15:07:03.028Z,26.70
2017-06-01T15:09:31.112Z,26.60
2017-06-01T15:11:59.961Z,26.90
2017-06-01T15:14:28.793Z,26.90
2017-06-01T15:16:57.615Z,26.90
2017-06-01T15:19:26.471Z,26.40
2017-06-01T15:21:55.305Z,26.50
2017-06-01T15:24:24.462Z,26.30
2017-06-01T15:26:53.283Z,26.30
2017-06-01T15:29:22.132Z,26.30
2017-06-01T15:31:50.199Z,26.30
2017-06-01T15:34:19.033Z,26.30
2017-06-01T15:36:47.876Z,25.80
2017-06-01T15:39:16.719Z,25.90
2017-06-01T15:41:45.560Z,25.90
2017-06-01T15:44:14.390Z,26.00
2017-06-01T15:46:43.227Z,26.10
2017-06-01T15:49:12.081Z,26.10
2017-06-01T15:51:40.948Z,26.00
2017-06-01T15:54:09.774Z,25.90
2017-06-01T15:56:37.851Z,25.80
2017-06-01T15:59:06.685Z,25.90
2017-06-01T16:01:34.756Z,25.90
2017-06-01T16:04:02.908Z,25.80
2017-06-01T16:06:31.741Z,25.90
2017-06-01T16:09:00.577Z,25.90
2017-06-01T16:11:29.407Z,25.90
2017-06-01T16:13:58.248Z,25.80
2017-06-01T16:16:27.079Z,25.70
2017-06-01T16:18:55.937Z,25.80
2017-06-01T16:21:24.767Z,25.90
2017-06-01T16:23:53.678Z,25.80
2017-06-01T16:26:21.758Z,25.70
2017-06-01T16:28:50.599Z,25.60
2017-06-01T16:31:19.476Z,25.60
2017-06-01T16:33:48.299Z,25.40
2017-06-01T16:36:17.188Z,25.10
2017-06-01T16:38:45.963Z,24.90
2017-06-01T16:41:14.786Z,25.10
2017-06-01T16:43:43.633Z,25.20
2017-06-01T16:46:12.478Z,25.10
2017-06-01T16:48:41.308Z,24.90
2017-06-01T16:51:10.149Z,24.90
2017-06-01T16:53:38.222Z,24.80
2017-06-01T16:56:07.042Z,24.90
2017-06-01T16:58:35.912Z,24.90
2017-06-01T17:01:04.768Z,24.90
2017-06-01T17:03:33.597Z,24.80
2017-06-01T17:06:02.456Z,24.60
2017-06-01T17:08:31.318Z,24.60
2017-06-01T17:11:00.164Z,24.50
2017-06-01T17:13:28.225Z,24.50
2017-06-01T17:15:57.080Z,24.60
2017-06-01T17:18:25.967Z,24.60
2017-06-01T17:20:54.756Z,24.50
2017-06-01T17:23:23.600Z,24.50
2017-06-01T17:25:52.442Z,24.50
2017-06-01T17:28:21.289Z,24.60
2017-06-01T17:30:50.109Z,24.60
2017-06-01T17:36:16.023Z,24.60
2017-06-01T17:38:44.880Z,24.50
2017-06-01T17:41:12.942Z,24.50
2017-06-01T17:43:41.775Z,24.30
2017-06-01T17:46:10.654Z,24.30
2017-06-01T17:48:39.490Z,24.20
2017-06-01T17:51:07.565Z,24.20
2017-06-01T17:53:36.401Z,24.10
2017-06-01T17:56:04.491Z,24.10
2017-06-01T17:58:33.340Z,23.90
2017-06-01T18:01:02.200Z,23.80
2017-06-01T18:03:31.048Z,23.80
2017-06-01T18:05:59.899Z,23.80
2017-06-01T18:08:28.731Z,23.70
2017-06-01T18:10:57.556Z,23.70
2017-06-01T18:13:26.401Z,23.60
2017-06-01T18:15:55.261Z,23.70
2017-06-01T18:18:24.099Z,23.70
2017-06-01T18:20:52.180Z,23.70
2017-06-01T18:23:21.045Z,23.40
2017-06-01T18:25:49.891Z,23.40
2017-06-01T18:28:18.725Z,23.40
2017-06-01T18:30:47.687Z,23.20
2017-06-01T18:33:16.536Z,23.30
2017-06-01T18:35:45.397Z,23.30
2017-06-01T18:38:14.223Z,23.10
2017-06-01T18:40:43.068Z,23.20
2017-06-01T18:43:11.901Z,23.20
2017-06-01T18:45:40.755Z,23.10
2017-06-01T18:48:09.591Z,23.10
2017-06-01T18:50:38.431Z,23.10
2017-06-01T18:53:07.944Z,22.80
2017-06-01T18:55:38.952Z,22.80
2017-06-01T18:58:10.198Z,22.90
2017-06-01T19:00:40.911Z,22.90
2017-06-01T19:03:09.765Z,22.90
2017-06-01T19:05:38.591Z,22.80
2017-06-01T19:08:07.423Z,22.60
2017-06-01T19:10:36.260Z,22.60
2017-06-01T19:13:05.102Z,22.50
2017-06-01T19:15:33.167Z,22.50
2017-06-01T19:18:02.009Z,22.20
2017-06-01T19:20:30.844Z,22.20
2017-06-01T19:22:59.681Z,22.40
2017-06-01T19:25:28.516Z,22.20
2017-06-01T19:27:57.401Z,22.20
2017-06-01T19:30:26.257Z,22.20
2017-06-01T19:32:55.088Z,22.20
2017-06-01T19:35:23.205Z,22.10
2017-06-01T19:37:52.044Z,22.00
2017-06-01T19:40:20.875Z,21.90
2017-06-01T19:42:49.720Z,21.80
2017-06-01T19:45:18.556Z,21.70
2017-06-01T19:47:47.390Z,21.60
2017-06-01T19:50:16.232Z,21.50
2017-06-01T19:52:45.088Z,21.40
2017-06-01T19:55:13.940Z,21.30
2017-06-01T19:57:42.800Z,21.10
2017-06-01T20:00:11.720Z,21.00
2017-06-01T20:02:40.551Z,21.10
2017-06-01T20:05:08.639Z,21.10
2017-06-01T20:07:37.462Z,20.80
2017-06-01T20:10:06.314Z,20.60
2017-06-01T20:12:35.153Z,20.40
2017-06-01T20:15:03.995Z,20.30
2017-06-01T20:17:32.866Z,19.70
2017-06-01T20:20:01.702Z,20.10
2017-06-01T20:22:30.556Z,20.30
2017-06-01T20:24:59.392Z,20.40
2017-06-01T20:27:28.238Z,20.40
2017-06-01T20:29:57.077Z,20.30
2017-06-01T20:32:26.299Z,20.40
2017-06-01T20:34:55.146Z,20.40
2017-06-01T20:37:24.040Z,20.30
2017-06-01T20:39:53.150Z,20.10
2017-06-01T20:42:22.078Z,19.90
2017-06-01T20:44:50.153Z,20.00
2017-06-01T20:47:18.993Z,20.00
2017-06-01T20:49:47.833Z,19.80
2017-06-01T20:52:16.671Z,19.90
2017-06-01T20:54:45.844Z,19.50
2017-06-01T20:57:14.681Z,19.70
2017-06-01T20:59:43.516Z,19.70
2017-06-01T21:02:12.373Z,19.80
2017-06-01T21:04:41.196Z,19.80
2017-06-01T21:07:10.029Z,19.80
2017-06-01T21:09:38.869Z,19.80
2017-06-01T21:12:07.709Z,19.80
2017-06-01T21:14:36.569Z,19.70
2017-06-01T21:17:05.423Z,19.60
2017-06-01T21:19:33.496Z,19.60
2017-06-01T21:22:02.331Z,19.20
2017-06-01T21:24:31.189Z,19.30
2017-06-01T21:27:00.293Z,19.30
2017-06-01T21:29:29.109Z,18.90
2017-06-01T21:31:57.184Z,18.90
2017-06-01T21:34:26.060Z,18.90
2017-06-01T21:36:54.895Z,18.80
2017-06-01T21:39:23.747Z,18.80
2017-06-01T21:41:52.583Z,18.70
2017-06-01T21:44:21.413Z,18.80
2017-06-01T21:46:50.248Z,19.00
2017-06-01T21:49:19.085Z,18.80
2017-06-01T21:51:47.147Z,18.80
2017-06-01T21:54:16.057Z,18.90
2017-06-01T21:56:44.896Z,18.90
2017-06-01T21:59:13.744Z,18.90
2017-06-01T22:01:42.572Z,18.90
2017-06-01T22:04:11.404Z,19.00
2017-06-01T22:06:40.253Z,18.90
2017-06-01T22:09:09.114Z,18.60
2017-06-01T22:11:37.955Z,18.60
2017-06-01T22:14:06.807Z,18.70
2017-06-01T22:16:35.642Z,18.80
2017-06-01T22:19:04.502Z,18.70
2017-06-01T22:21:33.348Z,18.60
2017-06-01T22:24:02.200Z,18.40
2017-06-01T22:26:31.044Z,18.40
2017-06-01T22:28:59.875Z,18.40
2017-06-01T22:31:27.953Z,18.40
2017-06-01T22:33:56.787Z,18.50
2017-06-01T22:36:25.621Z,18.50
2017-06-01T22:38:54.564Z,18.50
2017-06-01T22:41:23.402Z,18.10
2017-06-01T22:43:52.247Z,17.80
2017-06-01T22:46:21.295Z,17.70
2017-06-01T22:48:50.825Z,17.80
2017-06-01T22:51:19.645Z,17.80
2017-06-01T22:53:48.476Z,17.90
2017-06-01T22:56:17.299Z,17.90
2017-06-01T22:58:46.138Z,17.90
2017-06-01T23:01:14.973Z,17.90
2017-06-01T23:03:43.827Z,17.90
2017-06-01T23:06:12.657Z,18.00
2017-06-01T23:08:41.491Z,18.10
2017-06-01T23:11:10.486Z,18.00
2017-06-01T23:13:39.283Z,17.60
2017-06-01T23:16:08.122Z,17.50
2017-06-01T23:18:36.951Z,17.40
2017-06-01T23:21:05.797Z,17.20
2017-06-01T23:23:34.628Z,16.60
2017-06-01T23:26:03.493Z,16.70
2017-06-01T23:28:32.316Z,17.00
2017-06-01T23:31:01.145Z,17.10
2017-06-01T23:33:30.036Z,17.20
2017-06-01T23:35:58.872Z,17.10
2017-06-01T23:38:27.707Z,17.20
2017-06-01T23:40:56.528Z,17.20
2017-06-01T23:43:25.368Z,17.20
2017-06-01T23:45:54.204Z,17.00
2017-06-01T23:48:23.044Z,17.10
2017-06-01T23:50:51.874Z,17.30
2017-06-01T23:53:20.722Z,17.30
2017-06-01T23:55:48.800Z,17.30
2017-06-01T23:58:17.624Z,17.10
